sensor_id;sensor_type;location;lat;lon;timestamp;temperature;humidity
24645;DHT22;12780;45.502;9.146;2023-04-12T00:01:29;14.80;99.90
24645;DHT22;12780;45.502;9.146;2023-04-12T00:03:54;14.80;99.90
24645;DHT22;12780;45.502;9.146;2023-04-12T00:06:20;14.90;99.90
24645;DHT22;12780;45.502;9.146;2023-04-12T00:09:00;14.80;99.90
24645;DHT22;12780;45.502;9.146;2023-04-12T00:11:27;14.70;99.90
24645;DHT22;12780;45.502;9.146;2023-04-12T00:13:53;14.70;99.90
24645;DHT22;12780;45.502;9.146;2023-04-12T00:16:19;14.90;99.90
24645;DHT22;12780;45.502;9.146;2023-04-12T00:18:45;14.90;99.90
24645;DHT22;12780;45.502;9.146;2023-04-12T00:21:10;14.70;99.90
24645;DHT22;12780;45.502;9.146;2023-04-12T00:23:36;14.60;99.90
24645;DHT22;12780;45.502;9.146;2023-04-12T00:26:03;14.60;99.90
24645;DHT22;12780;45.502;9.146;2023-04-12T00:28:29;14.60;99.90
24645;DHT22;12780;45.502;9.146;2023-04-12T00:30:55;14.50;99.90
24645;DHT22;12780;45.502;9.146;2023-04-12T00:33:20;14.60;99.90
24645;DHT22;12780;45.502;9.146;2023-04-12T00:35:46;14.50;99.90
24645;DHT22;12780;45.502;9.146;2023-04-12T00:38:12;14.50;99.90
24645;DHT22;12780;45.502;9.146;2023-04-12T00:40:42;14.50;99.90
24645;DHT22;12780;45.502;9.146;2023-04-12T00:43:08;14.50;99.90
24645;DHT22;12780;45.502;9.146;2023-04-12T00:45:35;14.70;99.90
24645;DHT22;12780;45.502;9.146;2023-04-12T00:48:03;14.60;99.90
24645;DHT22;12780;45.502;9.146;2023-04-12T00:50:29;14.60;99.90
24645;DHT22;12780;45.502;9.146;2023-04-12T00:52:56;14.60;99.90
24645;DHT22;12780;45.502;9.146;2023-04-12T00:55:22;14.50;99.90
24645;DHT22;12780;45.502;9.146;2023-04-12T00:57:48;14.60;99.90
24645;DHT22;12780;45.502;9.146;2023-04-12T01:00:14;14.60;99.90
24645;DHT22;12780;45.502;9.146;2023-04-12T01:02:42;14.60;99.90
24645;DHT22;12780;45.502;9.146;2023-04-12T01:05:12;14.60;99.90
24645;DHT22;12780;45.502;9.146;2023-04-12T01:07:54;14.60;99.90
24645;DHT22;12780;45.502;9.146;2023-04-12T01:11:00;14.60;99.90
24645;DHT22;12780;45.502;9.146;2023-04-12T01:13:31;14.60;99.90
24645;DHT22;12780;45.502;9.146;2023-04-12T01:16:06;14.50;99.90
24645;DHT22;12780;45.502;9.146;2023-04-12T01:18:36;14.40;99.90
24645;DHT22;12780;45.502;9.146;2023-04-12T01:21:08;14.30;99.90
24645;DHT22;12780;45.502;9.146;2023-04-12T01:23:49;14.20;99.90
24645;DHT22;12780;45.502;9.146;2023-04-12T01:28:51;14.20;99.90
24645;DHT22;12780;45.502;9.146;2023-04-12T01:31:19;14.20;99.90
24645;DHT22;12780;45.502;9.146;2023-04-12T01:33:46;14.30;99.90
24645;DHT22;12780;45.502;9.146;2023-04-12T01:36:14;14.30;99.90
24645;DHT22;12780;45.502;9.146;2023-04-12T01:38:41;14.30;99.90
24645;DHT22;12780;45.502;9.146;2023-04-12T01:41:09;14.40;99.90
24645;DHT22;12780;45.502;9.146;2023-04-12T01:43:44;14.40;99.90
24645;DHT22;12780;45.502;9.146;2023-04-12T01:46:11;14.50;99.90
24645;DHT22;12780;45.502;9.146;2023-04-12T01:48:37;14.50;99.90
24645;DHT22;12780;45.502;9.146;2023-04-12T01:51:14;14.50;99.90
24645;DHT22;12780;45.502;9.146;2023-04-12T01:53:53;14.40;99.90
24645;DHT22;12780;45.502;9.146;2023-04-12T01:56:21;14.40;99.90
24645;DHT22;12780;45.502;9.146;2023-04-12T01:58:50;14.50;99.90
24645;DHT22;12780;45.502;9.146;2023-04-12T02:01:17;14.50;99.90
24645;DHT22;12780;45.502;9.146;2023-04-12T02:03:44;14.50;99.90
24645;DHT22;12780;45.502;9.146;2023-04-12T02:06:15;14.50;99.90
24645;DHT22;12780;45.502;9.146;2023-04-12T02:08:40;14.50;99.90
24645;DHT22;12780;45.502;9.146;2023-04-12T02:11:10;14.50;99.90
24645;DHT22;12780;45.502;9.146;2023-04-12T02:13:35;14.50;99.90
24645;DHT22;12780;45.502;9.146;2023-04-12T02:16:01;14.60;99.90
24645;DHT22;12780;45.502;9.146;2023-04-12T02:18:27;14.60;99.90
24645;DHT22;12780;45.502;9.146;2023-04-12T02:20:54;14.70;99.90
24645;DHT22;12780;45.502;9.146;2023-04-12T02:23:19;14.70;99.90
24645;DHT22;12780;45.502;9.146;2023-04-12T02:25:45;14.70;99.90
24645;DHT22;12780;45.502;9.146;2023-04-12T02:28:14;14.80;99.90
24645;DHT22;12780;45.502;9.146;2023-04-12T02:30:40;14.60;99.90
24645;DHT22;12780;45.502;9.146;2023-04-12T02:33:08;14.60;99.90
24645;DHT22;12780;45.502;9.146;2023-04-12T02:35:34;14.60;99.90
24645;DHT22;12780;45.502;9.146;2023-04-12T02:38:00;14.70;99.90
24645;DHT22;12780;45.502;9.146;2023-04-12T02:40:28;14.70;99.90
24645;DHT22;12780;45.502;9.146;2023-04-12T02:42:54;14.70;99.90
24645;DHT22;12780;45.502;9.146;2023-04-12T02:45:20;14.60;99.90
24645;DHT22;12780;45.502;9.146;2023-04-12T02:47:45;14.60;99.90
24645;DHT22;12780;45.502;9.146;2023-04-12T02:50:11;14.60;99.90
24645;DHT22;12780;45.502;9.146;2023-04-12T02:52:37;14.60;99.90
24645;DHT22;12780;45.502;9.146;2023-04-12T02:55:02;14.60;99.90
24645;DHT22;12780;45.502;9.146;2023-04-12T02:57:28;14.60;99.90
24645;DHT22;12780;45.502;9.146;2023-04-12T02:59:54;14.50;99.90
24645;DHT22;12780;45.502;9.146;2023-04-12T03:02:20;14.50;99.90
24645;DHT22;12780;45.502;9.146;2023-04-12T03:04:46;14.50;99.90
24645;DHT22;12780;45.502;9.146;2023-04-12T03:07:16;14.50;99.90
24645;DHT22;12780;45.502;9.146;2023-04-12T03:09:43;14.60;99.90
24645;DHT22;12780;45.502;9.146;2023-04-12T03:12:09;14.60;99.90
24645;DHT22;12780;45.502;9.146;2023-04-12T03:14:35;14.70;99.90
24645;DHT22;12780;45.502;9.146;2023-04-12T03:17:01;14.60;99.90
24645;DHT22;12780;45.502;9.146;2023-04-12T03:19:26;14.50;99.90
24645;DHT22;12780;45.502;9.146;2023-04-12T03:21:53;14.70;99.90
24645;DHT22;12780;45.502;9.146;2023-04-12T03:24:19;14.60;99.90
24645;DHT22;12780;45.502;9.146;2023-04-12T03:26:44;14.60;99.90
24645;DHT22;12780;45.502;9.146;2023-04-12T03:29:10;14.50;99.90
24645;DHT22;12780;45.502;9.146;2023-04-12T03:31:36;14.50;99.90
24645;DHT22;12780;45.502;9.146;2023-04-12T03:34:01;14.40;99.90
24645;DHT22;12780;45.502;9.146;2023-04-12T03:36:28;14.30;99.90
24645;DHT22;12780;45.502;9.146;2023-04-12T03:38:54;14.30;99.90
24645;DHT22;12780;45.502;9.146;2023-04-12T03:41:23;14.20;99.90
24645;DHT22;12780;45.502;9.146;2023-04-12T03:43:49;14.10;99.90
24645;DHT22;12780;45.502;9.146;2023-04-12T03:46:15;14.10;99.90
24645;DHT22;12780;45.502;9.146;2023-04-12T03:48:41;14.00;99.90
24645;DHT22;12780;45.502;9.146;2023-04-12T03:51:08;13.90;99.90
24645;DHT22;12780;45.502;9.146;2023-04-12T03:53:39;14.10;99.90
24645;DHT22;12780;45.502;9.146;2023-04-12T03:56:05;14.10;99.90
24645;DHT22;12780;45.502;9.146;2023-04-12T03:58:31;14.10;99.90
24645;DHT22;12780;45.502;9.146;2023-04-12T04:01:01;14.10;99.90
24645;DHT22;12780;45.502;9.146;2023-04-12T04:03:30;14.10;99.90
24645;DHT22;12780;45.502;9.146;2023-04-12T04:05:59;14.10;99.90
24645;DHT22;12780;45.502;9.146;2023-04-12T04:08:26;14.10;99.90
24645;DHT22;12780;45.502;9.146;2023-04-12T04:10:51;14.00;99.90
24645;DHT22;12780;45.502;9.146;2023-04-12T04:13:17;14.10;99.90
24645;DHT22;12780;45.502;9.146;2023-04-12T04:15:42;14.10;99.90
24645;DHT22;12780;45.502;9.146;2023-04-12T04:18:08;14.10;99.90
24645;DHT22;12780;45.502;9.146;2023-04-12T04:20:33;14.00;99.90
24645;DHT22;12780;45.502;9.146;2023-04-12T04:22:59;14.00;99.90
24645;DHT22;12780;45.502;9.146;2023-04-12T04:25:25;14.00;99.90
24645;DHT22;12780;45.502;9.146;2023-04-12T04:27:55;14.10;99.90
24645;DHT22;12780;45.502;9.146;2023-04-12T04:30:20;14.00;99.90
24645;DHT22;12780;45.502;9.146;2023-04-12T04:32:47;14.10;99.90
24645;DHT22;12780;45.502;9.146;2023-04-12T04:35:13;14.10;99.90
24645;DHT22;12780;45.502;9.146;2023-04-12T04:37:40;14.10;99.90
24645;DHT22;12780;45.502;9.146;2023-04-12T04:40:07;14.10;99.90
24645;DHT22;12780;45.502;9.146;2023-04-12T04:42:33;14.10;99.90
24645;DHT22;12780;45.502;9.146;2023-04-12T04:44:58;14.10;99.90
24645;DHT22;12780;45.502;9.146;2023-04-12T04:47:29;14.10;99.90
24645;DHT22;12780;45.502;9.146;2023-04-12T04:49:58;14.00;99.90
24645;DHT22;12780;45.502;9.146;2023-04-12T04:52:24;13.90;99.90
24645;DHT22;12780;45.502;9.146;2023-04-12T04:54:50;13.80;99.90
24645;DHT22;12780;45.502;9.146;2023-04-12T04:57:16;14.00;99.90
24645;DHT22;12780;45.502;9.146;2023-04-12T04:59:41;14.00;99.90
24645;DHT22;12780;45.502;9.146;2023-04-12T05:02:09;13.90;99.90
24645;DHT22;12780;45.502;9.146;2023-04-12T05:04:36;13.90;99.90
24645;DHT22;12780;45.502;9.146;2023-04-12T05:07:02;13.90;99.90
24645;DHT22;12780;45.502;9.146;2023-04-12T05:09:27;13.90;99.90
24645;DHT22;12780;45.502;9.146;2023-04-12T05:11:53;14.00;99.90
24645;DHT22;12780;45.502;9.146;2023-04-12T05:14:18;14.00;99.90
24645;DHT22;12780;45.502;9.146;2023-04-12T05:16:44;13.90;99.90
24645;DHT22;12780;45.502;9.146;2023-04-12T05:19:09;14.20;99.90
24645;DHT22;12780;45.502;9.146;2023-04-12T05:21:35;14.00;99.90
24645;DHT22;12780;45.502;9.146;2023-04-12T05:24:01;14.00;99.90
24645;DHT22;12780;45.502;9.146;2023-04-12T05:26:26;14.00;99.90
24645;DHT22;12780;45.502;9.146;2023-04-12T05:28:52;14.10;99.90
24645;DHT22;12780;45.502;9.146;2023-04-12T05:31:17;14.00;99.90
24645;DHT22;12780;45.502;9.146;2023-04-12T05:33:43;14.10;99.90
24645;DHT22;12780;45.502;9.146;2023-04-12T05:36:12;14.00;99.90
24645;DHT22;12780;45.502;9.146;2023-04-12T05:38:38;13.90;99.90
24645;DHT22;12780;45.502;9.146;2023-04-12T05:41:03;13.90;99.90
24645;DHT22;12780;45.502;9.146;2023-04-12T05:43:30;14.00;99.90
24645;DHT22;12780;45.502;9.146;2023-04-12T05:45:55;14.00;99.90
24645;DHT22;12780;45.502;9.146;2023-04-12T05:48:22;14.10;99.90
24645;DHT22;12780;45.502;9.146;2023-04-12T05:50:51;14.10;99.90
24645;DHT22;12780;45.502;9.146;2023-04-12T05:53:17;14.00;99.90
24645;DHT22;12780;45.502;9.146;2023-04-12T05:55:43;14.00;99.90
24645;DHT22;12780;45.502;9.146;2023-04-12T05:58:09;14.00;99.90
24645;DHT22;12780;45.502;9.146;2023-04-12T06:00:35;14.00;99.90
24645;DHT22;12780;45.502;9.146;2023-04-12T06:03:01;14.10;99.90
24645;DHT22;12780;45.502;9.146;2023-04-12T06:05:27;14.00;99.90
24645;DHT22;12780;45.502;9.146;2023-04-12T06:07:52;14.10;99.90
24645;DHT22;12780;45.502;9.146;2023-04-12T06:10:18;14.10;99.90
24645;DHT22;12780;45.502;9.146;2023-04-12T06:12:44;14.10;99.90
24645;DHT22;12780;45.502;9.146;2023-04-12T06:15:09;14.10;99.90
24645;DHT22;12780;45.502;9.146;2023-04-12T06:17:36;14.20;99.90
24645;DHT22;12780;45.502;9.146;2023-04-12T06:20:03;14.20;99.90
24645;DHT22;12780;45.502;9.146;2023-04-12T06:22:31;14.30;99.90
24645;DHT22;12780;45.502;9.146;2023-04-12T06:24:57;14.30;99.90
24645;DHT22;12780;45.502;9.146;2023-04-12T06:27:23;14.40;99.90
24645;DHT22;12780;45.502;9.146;2023-04-12T06:29:50;14.30;99.90
24645;DHT22;12780;45.502;9.146;2023-04-12T06:32:16;14.30;99.90
24645;DHT22;12780;45.502;9.146;2023-04-12T06:34:41;14.30;99.90
24645;DHT22;12780;45.502;9.146;2023-04-12T06:37:07;14.40;99.90
24645;DHT22;12780;45.502;9.146;2023-04-12T06:39:33;14.40;99.90
24645;DHT22;12780;45.502;9.146;2023-04-12T06:41:59;14.40;99.90
24645;DHT22;12780;45.502;9.146;2023-04-12T06:44:25;14.60;99.90
24645;DHT22;12780;45.502;9.146;2023-04-12T06:46:52;14.50;99.90
24645;DHT22;12780;45.502;9.146;2023-04-12T06:49:17;14.50;99.90
24645;DHT22;12780;45.502;9.146;2023-04-12T06:51:43;14.60;99.90
24645;DHT22;12780;45.502;9.146;2023-04-12T06:54:09;14.60;99.90
24645;DHT22;12780;45.502;9.146;2023-04-12T06:56:37;14.80;99.90
24645;DHT22;12780;45.502;9.146;2023-04-12T06:59:04;14.70;99.90
24645;DHT22;12780;45.502;9.146;2023-04-12T07:01:29;14.80;99.90
24645;DHT22;12780;45.502;9.146;2023-04-12T07:03:55;14.80;99.90
24645;DHT22;12780;45.502;9.146;2023-04-12T07:06:21;14.90;99.90
24645;DHT22;12780;45.502;9.146;2023-04-12T07:08:46;14.90;99.90
24645;DHT22;12780;45.502;9.146;2023-04-12T07:11:12;15.00;99.90
24645;DHT22;12780;45.502;9.146;2023-04-12T07:13:38;15.00;99.90
24645;DHT22;12780;45.502;9.146;2023-04-12T07:16:04;14.90;99.90
24645;DHT22;12780;45.502;9.146;2023-04-12T07:18:29;15.00;99.90
24645;DHT22;12780;45.502;9.146;2023-04-12T07:20:55;15.00;99.90
24645;DHT22;12780;45.502;9.146;2023-04-12T07:23:23;15.00;99.90
24645;DHT22;12780;45.502;9.146;2023-04-12T07:25:50;14.90;99.90
24645;DHT22;12780;45.502;9.146;2023-04-12T07:28:16;15.00;99.90
24645;DHT22;12780;45.502;9.146;2023-04-12T07:30:41;15.10;99.90
24645;DHT22;12780;45.502;9.146;2023-04-12T07:33:07;15.20;99.90
24645;DHT22;12780;45.502;9.146;2023-04-12T07:35:33;15.20;99.90
24645;DHT22;12780;45.502;9.146;2023-04-12T07:37:59;15.20;99.90
24645;DHT22;12780;45.502;9.146;2023-04-12T07:40:26;15.30;99.90
24645;DHT22;12780;45.502;9.146;2023-04-12T07:42:51;15.40;99.90
24645;DHT22;12780;45.502;9.146;2023-04-12T07:45:18;15.40;99.90
24645;DHT22;12780;45.502;9.146;2023-04-12T07:47:44;15.30;99.90
24645;DHT22;12780;45.502;9.146;2023-04-12T07:50:10;15.40;99.90
24645;DHT22;12780;45.502;9.146;2023-04-12T07:52:36;15.40;99.90
24645;DHT22;12780;45.502;9.146;2023-04-12T07:55:01;15.50;99.90
24645;DHT22;12780;45.502;9.146;2023-04-12T07:57:27;15.60;99.90
24645;DHT22;12780;45.502;9.146;2023-04-12T07:59:52;15.70;99.90
24645;DHT22;12780;45.502;9.146;2023-04-12T08:02:18;15.80;99.90
24645;DHT22;12780;45.502;9.146;2023-04-12T08:04:55;15.70;99.90
24645;DHT22;12780;45.502;9.146;2023-04-12T08:07:21;15.80;99.90
24645;DHT22;12780;45.502;9.146;2023-04-12T08:09:47;15.90;99.90
24645;DHT22;12780;45.502;9.146;2023-04-12T08:12:13;15.90;99.90
24645;DHT22;12780;45.502;9.146;2023-04-12T08:14:39;15.90;99.90
24645;DHT22;12780;45.502;9.146;2023-04-12T08:17:05;16.00;99.90
24645;DHT22;12780;45.502;9.146;2023-04-12T08:19:30;16.00;99.90
24645;DHT22;12780;45.502;9.146;2023-04-12T08:21:56;15.90;99.90
24645;DHT22;12780;45.502;9.146;2023-04-12T08:24:22;16.10;99.90
24645;DHT22;12780;45.502;9.146;2023-04-12T08:26:49;16.50;99.90
24645;DHT22;12780;45.502;9.146;2023-04-12T08:29:15;16.80;99.90
24645;DHT22;12780;45.502;9.146;2023-04-12T08:31:40;16.90;99.90
24645;DHT22;12780;45.502;9.146;2023-04-12T08:34:06;16.90;99.90
24645;DHT22;12780;45.502;9.146;2023-04-12T08:36:32;16.80;99.90
24645;DHT22;12780;45.502;9.146;2023-04-12T08:39:00;16.70;99.90
24645;DHT22;12780;45.502;9.146;2023-04-12T08:41:26;16.60;99.90
24645;DHT22;12780;45.502;9.146;2023-04-12T08:43:53;16.60;99.90
24645;DHT22;12780;45.502;9.146;2023-04-12T08:46:20;16.50;99.90
24645;DHT22;12780;45.502;9.146;2023-04-12T08:48:50;16.40;99.90
24645;DHT22;12780;45.502;9.146;2023-04-12T08:51:20;16.40;99.90
24645;DHT22;12780;45.502;9.146;2023-04-12T08:53:46;16.40;99.90
24645;DHT22;12780;45.502;9.146;2023-04-12T08:56:13;16.50;99.90
24645;DHT22;12780;45.502;9.146;2023-04-12T08:58:40;16.50;99.90
24645;DHT22;12780;45.502;9.146;2023-04-12T09:01:13;16.60;99.90
24645;DHT22;12780;45.502;9.146;2023-04-12T09:03:40;16.60;99.90
24645;DHT22;12780;45.502;9.146;2023-04-12T09:06:06;16.60;99.90
24645;DHT22;12780;45.502;9.146;2023-04-12T09:08:32;16.60;99.90
24645;DHT22;12780;45.502;9.146;2023-04-12T09:10:58;16.80;99.90
24645;DHT22;12780;45.502;9.146;2023-04-12T09:13:33;16.70;99.90
24645;DHT22;12780;45.502;9.146;2023-04-12T09:16:00;16.70;99.90
24645;DHT22;12780;45.502;9.146;2023-04-12T09:18:25;16.90;99.90
24645;DHT22;12780;45.502;9.146;2023-04-12T09:21:07;17.00;99.90
24645;DHT22;12780;45.502;9.146;2023-04-12T09:23:33;17.00;99.90
24645;DHT22;12780;45.502;9.146;2023-04-12T09:26:02;17.00;99.90
24645;DHT22;12780;45.502;9.146;2023-04-12T09:28:28;17.10;99.90
24645;DHT22;12780;45.502;9.146;2023-04-12T09:30:56;17.10;99.90
24645;DHT22;12780;45.502;9.146;2023-04-12T09:33:35;17.00;99.90
24645;DHT22;12780;45.502;9.146;2023-04-12T09:36:04;17.10;99.90
24645;DHT22;12780;45.502;9.146;2023-04-12T09:38:31;17.10;99.90
24645;DHT22;12780;45.502;9.146;2023-04-12T09:41:05;17.10;99.90
24645;DHT22;12780;45.502;9.146;2023-04-12T09:43:39;17.20;99.90
24645;DHT22;12780;45.502;9.146;2023-04-12T09:46:12;17.30;99.90
24645;DHT22;12780;45.502;9.146;2023-04-12T09:48:48;17.40;99.90
24645;DHT22;12780;45.502;9.146;2023-04-12T09:51:30;17.50;99.90
24645;DHT22;12780;45.502;9.146;2023-04-12T09:53:59;17.40;99.90
24645;DHT22;12780;45.502;9.146;2023-04-12T09:56:28;17.60;99.90
24645;DHT22;12780;45.502;9.146;2023-04-12T09:58:59;17.40;99.90
24645;DHT22;12780;45.502;9.146;2023-04-12T10:01:27;17.30;99.90
24645;DHT22;12780;45.502;9.146;2023-04-12T10:03:54;17.10;99.90
24645;DHT22;12780;45.502;9.146;2023-04-12T10:06:20;17.10;99.90
24645;DHT22;12780;45.502;9.146;2023-04-12T10:08:48;17.20;99.90
24645;DHT22;12780;45.502;9.146;2023-04-12T10:11:14;17.30;99.90
24645;DHT22;12780;45.502;9.146;2023-04-12T10:13:41;17.30;99.90
24645;DHT22;12780;45.502;9.146;2023-04-12T10:16:08;17.10;99.90
24645;DHT22;12780;45.502;9.146;2023-04-12T10:18:35;17.30;99.90
24645;DHT22;12780;45.502;9.146;2023-04-12T10:21:04;17.30;99.90
24645;DHT22;12780;45.502;9.146;2023-04-12T10:23:31;17.40;99.90
24645;DHT22;12780;45.502;9.146;2023-04-12T10:25:57;17.50;99.90
24645;DHT22;12780;45.502;9.146;2023-04-12T10:28:24;17.70;99.90
24645;DHT22;12780;45.502;9.146;2023-04-12T10:30:49;17.90;99.90
24645;DHT22;12780;45.502;9.146;2023-04-12T10:33:19;17.90;99.90
24645;DHT22;12780;45.502;9.146;2023-04-12T10:38:16;18.20;99.90
24645;DHT22;12780;45.502;9.146;2023-04-12T10:43:31;18.20;99.90
24645;DHT22;12780;45.502;9.146;2023-04-12T10:45:57;18.30;99.90
24645;DHT22;12780;45.502;9.146;2023-04-12T10:51:14;18.20;99.90
24645;DHT22;12780;45.502;9.146;2023-04-12T10:53:42;18.30;99.90
24645;DHT22;12780;45.502;9.146;2023-04-12T10:59:00;18.70;99.90
24645;DHT22;12780;45.502;9.146;2023-04-12T11:01:26;19.00;99.90
24645;DHT22;12780;45.502;9.146;2023-04-12T11:09:36;18.80;99.90
24645;DHT22;12780;45.502;9.146;2023-04-12T11:14:47;18.80;99.90
24645;DHT22;12780;45.502;9.146;2023-04-12T11:19:41;18.80;99.90
24645;DHT22;12780;45.502;9.146;2023-04-12T11:22:09;18.80;99.90
24645;DHT22;12780;45.502;9.146;2023-04-12T11:24:42;18.50;99.90
24645;DHT22;12780;45.502;9.146;2023-04-12T11:27:08;18.30;99.90
24645;DHT22;12780;45.502;9.146;2023-04-12T11:29:34;18.30;99.90
24645;DHT22;12780;45.502;9.146;2023-04-12T11:32:05;18.50;99.90
24645;DHT22;12780;45.502;9.146;2023-04-12T11:34:35;18.60;99.90
24645;DHT22;12780;45.502;9.146;2023-04-12T11:37:02;18.70;99.90
24645;DHT22;12780;45.502;9.146;2023-04-12T11:39:39;18.90;99.90
24645;DHT22;12780;45.502;9.146;2023-04-12T11:42:06;19.10;99.90
24645;DHT22;12780;45.502;9.146;2023-04-12T11:44:34;19.20;99.90
24645;DHT22;12780;45.502;9.146;2023-04-12T11:47:01;19.50;99.90
24645;DHT22;12780;45.502;9.146;2023-04-12T11:49:26;19.60;99.90
24645;DHT22;12780;45.502;9.146;2023-04-12T11:52:04;19.80;99.90
24645;DHT22;12780;45.502;9.146;2023-04-12T11:54:30;19.90;99.90
24645;DHT22;12780;45.502;9.146;2023-04-12T11:56:56;19.90;99.90
24645;DHT22;12780;45.502;9.146;2023-04-12T11:59:30;19.90;99.90
24645;DHT22;12780;45.502;9.146;2023-04-12T12:01:56;19.90;99.90
24645;DHT22;12780;45.502;9.146;2023-04-12T12:04:23;19.90;99.90
24645;DHT22;12780;45.502;9.146;2023-04-12T12:06:48;19.90;99.90
24645;DHT22;12780;45.502;9.146;2023-04-12T12:09:14;19.80;99.90
24645;DHT22;12780;45.502;9.146;2023-04-12T12:11:40;19.60;99.90
24645;DHT22;12780;45.502;9.146;2023-04-12T12:14:05;19.40;99.90
24645;DHT22;12780;45.502;9.146;2023-04-12T12:16:32;19.30;99.90
24645;DHT22;12780;45.502;9.146;2023-04-12T12:19:02;19.20;99.90
24645;DHT22;12780;45.502;9.146;2023-04-12T12:21:29;19.10;99.90
24645;DHT22;12780;45.502;9.146;2023-04-12T12:23:55;19.00;99.90
24645;DHT22;12780;45.502;9.146;2023-04-12T12:26:25;19.00;99.90
24645;DHT22;12780;45.502;9.146;2023-04-12T12:28:54;19.10;99.90
24645;DHT22;12780;45.502;9.146;2023-04-12T12:31:22;19.30;99.90
24645;DHT22;12780;45.502;9.146;2023-04-12T12:33:52;19.40;99.90
24645;DHT22;12780;45.502;9.146;2023-04-12T12:36:18;19.40;99.90
24645;DHT22;12780;45.502;9.146;2023-04-12T12:38:47;19.50;99.90
24645;DHT22;12780;45.502;9.146;2023-04-12T12:41:18;19.70;99.90
24645;DHT22;12780;45.502;9.146;2023-04-12T12:43:48;19.60;99.90
24645;DHT22;12780;45.502;9.146;2023-04-12T12:46:14;19.70;99.90
24645;DHT22;12780;45.502;9.146;2023-04-12T12:48:40;19.90;99.90
24645;DHT22;12780;45.502;9.146;2023-04-12T12:51:07;19.90;99.90
24645;DHT22;12780;45.502;9.146;2023-04-12T12:53:34;20.00;99.90
24645;DHT22;12780;45.502;9.146;2023-04-12T12:56:00;20.00;99.90
24645;DHT22;12780;45.502;9.146;2023-04-12T12:58:25;20.00;99.90
24645;DHT22;12780;45.502;9.146;2023-04-12T13:00:51;20.00;99.90
24645;DHT22;12780;45.502;9.146;2023-04-12T13:03:17;19.90;99.90
24645;DHT22;12780;45.502;9.146;2023-04-12T13:05:42;19.80;99.90
24645;DHT22;12780;45.502;9.146;2023-04-12T13:08:08;19.80;99.90
24645;DHT22;12780;45.502;9.146;2023-04-12T13:10:33;19.70;99.90
24645;DHT22;12780;45.502;9.146;2023-04-12T13:13:19;19.70;99.90
24645;DHT22;12780;45.502;9.146;2023-04-12T13:15:45;19.80;99.90
24645;DHT22;12780;45.502;9.146;2023-04-12T13:18:13;19.80;99.90
24645;DHT22;12780;45.502;9.146;2023-04-12T13:20:42;19.80;99.90
24645;DHT22;12780;45.502;9.146;2023-04-12T13:23:07;19.80;99.90
24645;DHT22;12780;45.502;9.146;2023-04-12T13:25:33;19.60;99.90
24645;DHT22;12780;45.502;9.146;2023-04-12T13:27:59;19.50;99.90
24645;DHT22;12780;45.502;9.146;2023-04-12T13:30:24;19.40;99.90
24645;DHT22;12780;45.502;9.146;2023-04-12T13:32:50;19.40;99.90
24645;DHT22;12780;45.502;9.146;2023-04-12T13:35:16;19.30;99.90
24645;DHT22;12780;45.502;9.146;2023-04-12T13:37:41;19.20;99.90
24645;DHT22;12780;45.502;9.146;2023-04-12T13:40:07;19.10;99.90
24645;DHT22;12780;45.502;9.146;2023-04-12T13:42:33;19.10;99.90
24645;DHT22;12780;45.502;9.146;2023-04-12T13:44:59;19.10;99.90
24645;DHT22;12780;45.502;9.146;2023-04-12T13:47:26;18.90;99.90
24645;DHT22;12780;45.502;9.146;2023-04-12T13:49:51;18.90;99.90
24645;DHT22;12780;45.502;9.146;2023-04-12T13:52:18;18.90;99.90
24645;DHT22;12780;45.502;9.146;2023-04-12T13:54:44;18.90;99.90
24645;DHT22;12780;45.502;9.146;2023-04-12T13:57:10;19.00;99.90
24645;DHT22;12780;45.502;9.146;2023-04-12T13:59:35;19.00;99.90
24645;DHT22;12780;45.502;9.146;2023-04-12T14:02:01;19.10;99.90
24645;DHT22;12780;45.502;9.146;2023-04-12T14:04:28;19.30;99.90
24645;DHT22;12780;45.502;9.146;2023-04-12T14:06:53;18.80;99.90
24645;DHT22;12780;45.502;9.146;2023-04-12T14:09:23;18.80;99.90
24645;DHT22;12780;45.502;9.146;2023-04-12T14:11:52;18.60;99.90
24645;DHT22;12780;45.502;9.146;2023-04-12T14:14:20;18.70;99.90
24645;DHT22;12780;45.502;9.146;2023-04-12T14:16:48;18.50;99.90
24645;DHT22;12780;45.502;9.146;2023-04-12T14:19:14;18.50;99.90
24645;DHT22;12780;45.502;9.146;2023-04-12T14:21:40;18.40;99.90
24645;DHT22;12780;45.502;9.146;2023-04-12T14:24:06;18.50;99.90
24645;DHT22;12780;45.502;9.146;2023-04-12T14:26:32;18.50;99.90
24645;DHT22;12780;45.502;9.146;2023-04-12T14:28:57;18.50;99.90
24645;DHT22;12780;45.502;9.146;2023-04-12T14:31:23;18.50;99.90
24645;DHT22;12780;45.502;9.146;2023-04-12T14:33:48;18.40;99.90
24645;DHT22;12780;45.502;9.146;2023-04-12T14:36:14;18.50;99.90
24645;DHT22;12780;45.502;9.146;2023-04-12T14:38:39;18.60;99.90
24645;DHT22;12780;45.502;9.146;2023-04-12T14:41:06;18.60;99.90
24645;DHT22;12780;45.502;9.146;2023-04-12T14:43:32;18.60;99.90
24645;DHT22;12780;45.502;9.146;2023-04-12T14:45:58;18.60;99.90
24645;DHT22;12780;45.502;9.146;2023-04-12T14:48:24;18.70;99.90
24645;DHT22;12780;45.502;9.146;2023-04-12T14:50:50;18.40;99.90
24645;DHT22;12780;45.502;9.146;2023-04-12T14:53:15;18.60;99.90
24645;DHT22;12780;45.502;9.146;2023-04-12T14:55:43;18.70;99.90
24645;DHT22;12780;45.502;9.146;2023-04-12T14:58:09;18.30;99.90
24645;DHT22;12780;45.502;9.146;2023-04-12T15:00:35;18.80;99.90
24645;DHT22;12780;45.502;9.146;2023-04-12T15:03:00;18.80;99.90
24645;DHT22;12780;45.502;9.146;2023-04-12T15:05:26;18.30;99.90
24645;DHT22;12780;45.502;9.146;2023-04-12T15:07:52;18.50;99.90
24645;DHT22;12780;45.502;9.146;2023-04-12T15:10:18;18.80;99.90
24645;DHT22;12780;45.502;9.146;2023-04-12T15:12:45;18.70;99.90
24645;DHT22;12780;45.502;9.146;2023-04-12T15:15:11;18.90;99.90
24645;DHT22;12780;45.502;9.146;2023-04-12T15:17:36;18.40;99.90
24645;DHT22;12780;45.502;9.146;2023-04-12T15:20:02;18.50;99.90
24645;DHT22;12780;45.502;9.146;2023-04-12T15:22:35;18.40;99.90
24645;DHT22;12780;45.502;9.146;2023-04-12T15:25:02;18.50;99.90
24645;DHT22;12780;45.502;9.146;2023-04-12T15:27:29;18.30;99.90
24645;DHT22;12780;45.502;9.146;2023-04-12T15:29:56;18.40;99.90
24645;DHT22;12780;45.502;9.146;2023-04-12T15:32:22;18.10;99.90
24645;DHT22;12780;45.502;9.146;2023-04-12T15:34:50;18.20;99.90
24645;DHT22;12780;45.502;9.146;2023-04-12T15:37:16;18.00;99.90
24645;DHT22;12780;45.502;9.146;2023-04-12T15:39:43;18.00;99.90
24645;DHT22;12780;45.502;9.146;2023-04-12T15:42:09;17.90;99.90
24645;DHT22;12780;45.502;9.146;2023-04-12T15:44:35;18.40;99.90
24645;DHT22;12780;45.502;9.146;2023-04-12T15:47:01;17.70;99.90
24645;DHT22;12780;45.502;9.146;2023-04-12T15:49:26;17.90;99.90
24645;DHT22;12780;45.502;9.146;2023-04-12T15:51:53;17.60;99.90
24645;DHT22;12780;45.502;9.146;2023-04-12T15:54:21;17.50;99.90